createdAt,value
2018-03-21T00:01:48.114Z,3.10
2018-03-21T00:04:16.597Z,3.27
2018-03-21T00:06:45.090Z,3.93
2018-03-21T00:09:13.562Z,4.53
2018-03-21T00:11:42.142Z,6.50
2018-03-21T00:14:10.518Z,5.03
2018-03-21T00:16:38.997Z,8.97
2018-03-21T00:19:07.621Z,9.10
2018-03-21T00:21:36.304Z,8.03
2018-03-21T00:24:04.644Z,10.17
2018-03-21T00:26:32.921Z,13.77
2018-03-21T00:29:01.609Z,8.23
2018-03-21T00:31:29.798Z,9.23
2018-03-21T00:33:58.366Z,8.60
2018-03-21T00:36:27.047Z,6.80
2018-03-21T00:38:55.414Z,6.40
2018-03-21T00:41:23.905Z,5.80
2018-03-21T00:43:52.490Z,6.10
2018-03-21T00:46:20.970Z,5.20
2018-03-21T00:48:49.445Z,6.00
2018-03-21T00:51:17.811Z,5.97
2018-03-21T00:53:46.216Z,7.67
2018-03-21T00:56:14.789Z,7.20
2018-03-21T00:58:43.265Z,7.90
2018-03-21T01:01:11.646Z,6.37
2018-03-21T01:03:40.236Z,9.90
2018-03-21T01:06:08.694Z,8.23
2018-03-21T01:08:37.190Z,9.10
2018-03-21T01:11:05.665Z,7.70
2018-03-21T01:13:34.136Z,8.80
2018-03-21T01:16:02.532Z,7.67
2018-03-21T01:18:31.215Z,8.20
2018-03-21T01:20:59.803Z,9.83
2018-03-21T01:23:28.080Z,10.03
2018-03-21T01:25:56.559Z,5.57
2018-03-21T01:28:25.232Z,4.63
2018-03-21T01:30:53.763Z,4.47
2018-03-21T01:33:21.990Z,4.93
2018-03-21T01:35:50.426Z,5.87
2018-03-21T01:38:19.201Z,6.10
2018-03-21T01:40:47.940Z,6.03
2018-03-21T01:43:16.326Z,6.87
2018-03-21T01:45:44.689Z,5.77
2018-03-21T01:48:13.076Z,5.80
2018-03-21T01:50:41.657Z,4.33
2018-03-21T01:53:12.180Z,4.40
2018-03-21T01:55:40.575Z,2.90
2018-03-21T01:58:09.258Z,3.37
2018-03-21T02:00:38.244Z,3.10
2018-03-21T02:03:06.508Z,2.50
2018-03-21T02:05:35.110Z,3.50
2018-03-21T02:08:03.390Z,2.97
2018-03-21T02:10:31.949Z,3.80
2018-03-21T02:13:00.548Z,3.73
2018-03-21T02:15:29.232Z,4.93
2018-03-21T02:17:57.954Z,4.60
2018-03-21T02:20:26.117Z,5.10
2018-03-21T02:22:54.878Z,4.10
2018-03-21T02:25:23.154Z,4.60
2018-03-21T02:27:51.642Z,4.40
2018-03-21T02:30:20.015Z,5.60
2018-03-21T02:32:48.388Z,4.43
2018-03-21T02:35:16.666Z,5.83
2018-03-21T02:37:44.944Z,6.23
2018-03-21T02:40:13.108Z,4.70
2018-03-21T02:42:41.507Z,5.50
2018-03-21T02:45:10.376Z,6.50
2018-03-21T02:47:38.967Z,6.17
2018-03-21T02:50:07.431Z,7.23
2018-03-21T02:52:35.674Z,6.73
2018-03-21T02:55:04.301Z,6.20
2018-03-21T02:57:32.668Z,6.90
2018-03-21T03:00:00.976Z,8.07
2018-03-21T03:02:29.950Z,7.20
2018-03-21T03:04:58.945Z,16.97
2018-03-21T03:07:27.641Z,9.50
2018-03-21T03:09:55.908Z,8.97
2018-03-21T03:12:24.386Z,8.33
2018-03-21T03:14:52.867Z,8.43
2018-03-21T03:17:20.994Z,9.50
2018-03-21T03:19:49.616Z,9.53
2018-03-21T03:22:18.139Z,7.63
2018-03-21T03:24:47.181Z,4.93
2018-03-21T03:27:15.569Z,4.70
2018-03-21T03:29:44.154Z,4.20
2018-03-21T03:32:12.732Z,3.73
2018-03-21T03:34:41.209Z,3.20
2018-03-21T03:37:09.600Z,3.17
2018-03-21T03:39:38.286Z,2.47
2018-03-21T03:42:06.762Z,3.60
2018-03-21T03:44:35.245Z,2.00
2018-03-21T03:47:03.715Z,3.33
2018-03-21T03:49:31.997Z,2.60
2018-03-21T03:52:00.478Z,3.27
2018-03-21T03:54:28.846Z,3.03
2018-03-21T03:56:57.337Z,2.70
2018-03-21T03:59:25.658Z,4.00
2018-03-21T04:01:54.298Z,2.80
2018-03-21T04:04:23.085Z,2.13
2018-03-21T04:06:51.519Z,3.03
2018-03-21T04:09:19.846Z,3.10
2018-03-21T04:11:48.521Z,3.60
2018-03-21T04:14:16.691Z,3.40
2018-03-21T04:16:45.077Z,22.27
2018-03-21T04:19:13.662Z,9.80
2018-03-21T04:21:42.065Z,7.57
2018-03-21T04:24:10.617Z,4.60
2018-03-21T04:26:39.216Z,6.37
2018-03-21T04:29:07.876Z,11.17
2018-03-21T04:31:37.498Z,7.60
2018-03-21T04:34:05.643Z,14.53
2018-03-21T04:36:34.253Z,11.13
2018-03-21T04:39:02.733Z,6.70
2018-03-21T04:41:31.303Z,5.23
2018-03-21T04:43:59.901Z,42.37
2018-03-21T04:46:28.484Z,9.27
2018-03-21T04:48:57.033Z,43.73
2018-03-21T04:51:25.633Z,11.10
2018-03-21T04:53:54.180Z,3.90
2018-03-21T04:56:22.815Z,4.60
2018-03-21T04:58:51.137Z,8.80
2018-03-21T05:01:19.773Z,21.63
2018-03-21T05:03:48.665Z,22.07
2018-03-21T05:06:17.353Z,12.30
2018-03-21T05:08:45.638Z,15.80
2018-03-21T05:11:14.413Z,21.60
2018-03-21T05:13:42.797Z,29.23
2018-03-21T05:16:11.001Z,18.60
2018-03-21T05:18:39.849Z,19.23
2018-03-21T05:21:08.332Z,17.10
2018-03-21T05:23:37.856Z,11.90
2018-03-21T05:26:06.631Z,12.80
2018-03-21T05:28:35.408Z,10.90
2018-03-21T05:31:03.844Z,22.07
2018-03-21T05:33:32.278Z,29.10
2018-03-21T05:36:00.963Z,53.77
2018-03-21T05:38:29.648Z,34.80
2018-03-21T05:40:58.142Z,25.63
2018-03-21T05:43:26.810Z,14.70
2018-03-21T05:45:55.291Z,38.90
2018-03-21T05:48:23.315Z,123.93
2018-03-21T05:50:51.360Z,54.27
2018-03-21T05:53:19.813Z,22.80
2018-03-21T05:55:48.326Z,11.87
2018-03-21T05:58:16.669Z,14.90
2018-03-21T06:00:44.598Z,10.47
2018-03-21T06:03:13.109Z,7.00
2018-03-21T06:05:41.597Z,17.10
2018-03-21T06:08:10.277Z,10.33
2018-03-21T06:10:38.866Z,9.77
2018-03-21T06:13:07.454Z,56.53
2018-03-21T06:15:35.827Z,46.40
2018-03-21T06:18:04.412Z,115.53
2018-03-21T06:20:32.999Z,251.50
2018-03-21T06:23:01.271Z,95.43
2018-03-21T06:25:29.850Z,9.70
2018-03-21T06:27:58.333Z,88.13
2018-03-21T06:30:26.717Z,11.40
2018-03-21T06:32:54.980Z,5.30
2018-03-21T06:35:23.264Z,41.93
2018-03-21T06:37:51.845Z,32.70
2018-03-21T06:40:20.362Z,11.50
2018-03-21T06:42:48.800Z,11.67
2018-03-21T06:45:17.381Z,5.27
2018-03-21T06:47:45.851Z,8.80
2018-03-21T06:50:14.452Z,10.07
2018-03-21T06:52:43.145Z,10.03
2018-03-21T06:55:12.075Z,9.23
2018-03-21T06:57:40.626Z,6.93
2018-03-21T07:00:09.105Z,28.93
2018-03-21T07:02:37.544Z,15.97
2018-03-21T07:05:06.063Z,13.07
2018-03-21T07:07:34.937Z,10.77
2018-03-21T07:10:03.527Z,13.60
2018-03-21T07:12:32.206Z,13.10
2018-03-21T07:15:12.416Z,12.77
2018-03-21T07:17:41.071Z,14.10
2018-03-21T07:20:10.186Z,14.07
2018-03-21T07:22:38.439Z,11.00
2018-03-21T07:25:07.310Z,10.80
2018-03-21T07:27:36.057Z,7.30
2018-03-21T07:30:04.582Z,7.30
2018-03-21T07:32:32.904Z,9.77
2018-03-21T07:35:01.871Z,8.33
2018-03-21T07:37:30.247Z,14.90
2018-03-21T07:39:58.703Z,27.53
2018-03-21T07:42:26.816Z,27.40
2018-03-21T07:44:55.350Z,22.83
2018-03-21T07:47:23.735Z,22.30
2018-03-21T07:49:52.221Z,22.80
2018-03-21T07:52:20.598Z,38.87
2018-03-21T07:54:49.070Z,24.60
2018-03-21T07:57:17.450Z,23.10
2018-03-21T07:59:45.737Z,22.30
2018-03-21T08:02:14.455Z,21.63
2018-03-21T08:04:43.396Z,23.70
2018-03-21T08:07:11.767Z,25.20
2018-03-21T08:09:40.280Z,34.03
2018-03-21T08:12:09.249Z,26.87
2018-03-21T08:14:37.833Z,19.60
2018-03-21T08:17:06.385Z,20.50
2018-03-21T08:19:34.795Z,54.50
2018-03-21T08:22:03.998Z,40.57
2018-03-21T08:24:32.298Z,39.27
2018-03-21T08:27:00.852Z,41.73
2018-03-21T08:29:29.333Z,29.53
2018-03-21T08:31:57.901Z,37.93
2018-03-21T08:34:26.521Z,39.83
2018-03-21T08:36:55.180Z,35.97
2018-03-21T08:39:23.469Z,44.70
2018-03-21T08:41:52.040Z,31.60
2018-03-21T08:44:20.526Z,19.33
2018-03-21T08:46:48.884Z,19.43
2018-03-21T08:49:17.384Z,21.77
2018-03-21T08:51:45.786Z,20.77
2018-03-21T08:54:14.138Z,19.10
2018-03-21T08:56:42.817Z,19.90
2018-03-21T08:59:11.026Z,21.97
2018-03-21T09:01:39.582Z,27.00
2018-03-21T09:04:07.772Z,20.77
2018-03-21T09:06:36.027Z,19.60
2018-03-21T09:09:04.401Z,20.07
2018-03-21T09:11:32.921Z,24.37
2018-03-21T09:14:01.674Z,28.80
2018-03-21T09:16:30.182Z,30.57
2018-03-21T09:18:58.842Z,20.97
2018-03-21T09:21:27.464Z,17.87
2018-03-21T09:23:55.802Z,18.00
2018-03-21T09:26:24.064Z,16.80
2018-03-21T09:28:52.353Z,24.13
2018-03-21T09:31:21.004Z,15.03
2018-03-21T09:33:49.508Z,14.63
2018-03-21T09:36:17.998Z,14.10
2018-03-21T09:38:46.586Z,10.30
2018-03-21T09:41:15.455Z,19.17
2018-03-21T09:43:43.850Z,12.60
2018-03-21T09:46:12.438Z,16.90
2018-03-21T09:48:41.047Z,16.40
2018-03-21T09:51:09.184Z,21.90
2018-03-21T09:53:37.569Z,21.30
2018-03-21T09:56:06.131Z,15.50
2018-03-21T09:58:34.734Z,11.40
2018-03-21T10:01:03.420Z,21.20
2018-03-21T10:03:31.780Z,14.77
2018-03-21T10:06:00.182Z,10.73
2018-03-21T10:08:28.964Z,8.87
2018-03-21T10:10:57.218Z,5.33
2018-03-21T10:13:25.511Z,9.63
2018-03-21T10:15:54.024Z,8.63
2018-03-21T10:18:22.520Z,12.70
2018-03-21T10:20:51.054Z,18.53
2018-03-21T10:23:19.595Z,20.70
2018-03-21T10:25:47.808Z,26.33
2018-03-21T10:28:16.304Z,18.90
2018-03-21T10:30:44.672Z,19.13
2018-03-21T10:33:13.153Z,21.30
2018-03-21T10:35:41.934Z,15.80
2018-03-21T10:38:10.041Z,15.70
2018-03-21T10:40:38.904Z,14.70
2018-03-21T10:43:07.389Z,16.63
2018-03-21T10:45:35.854Z,18.70
2018-03-21T10:48:04.527Z,16.20
2018-03-21T10:50:33.021Z,16.80
2018-03-21T10:53:01.202Z,12.23
2018-03-21T10:55:29.678Z,14.30
2018-03-21T10:57:58.050Z,11.67
2018-03-21T11:00:26.541Z,17.10
2018-03-21T11:03:00.937Z,15.00
2018-03-21T11:05:29.244Z,9.73
2018-03-21T11:07:58.012Z,12.40
2018-03-21T11:10:26.488Z,9.43
2018-03-21T11:12:55.297Z,8.50
2018-03-21T11:15:23.768Z,4.90
2018-03-21T11:17:52.364Z,9.77
2018-03-21T11:20:20.942Z,10.90
2018-03-21T11:22:49.406Z,15.00
2018-03-21T11:25:17.584Z,2.93
2018-03-21T11:27:46.792Z,6.43
2018-03-21T11:30:15.900Z,10.30
2018-03-21T11:32:44.887Z,7.40
2018-03-21T11:35:13.982Z,4.33
2018-03-21T11:37:42.606Z,6.57
2018-03-21T11:40:12.404Z,4.07
2018-03-21T11:42:43.364Z,2.80
2018-03-21T11:45:12.185Z,6.40
2018-03-21T11:47:40.524Z,2.37
2018-03-21T11:50:09.043Z,4.23
2018-03-21T11:52:37.635Z,5.83
2018-03-21T11:55:05.902Z,3.50
2018-03-21T11:57:34.486Z,4.80
2018-03-21T12:00:02.950Z,5.33
2018-03-21T12:02:31.450Z,2.17
2018-03-21T12:05:00.040Z,2.17
2018-03-21T12:07:28.511Z,2.27
2018-03-21T12:09:56.780Z,2.60
2018-03-21T12:12:25.262Z,2.17
2018-03-21T12:14:53.637Z,3.13
2018-03-21T12:17:21.925Z,3.30
2018-03-21T12:19:50.812Z,4.30
2018-03-21T12:22:19.100Z,3.03
2018-03-21T12:24:47.261Z,4.03
2018-03-21T12:27:15.793Z,9.53
2018-03-21T12:29:44.531Z,8.70
2018-03-21T12:32:12.448Z,6.83
2018-03-21T12:34:40.380Z,11.33
2018-03-21T12:37:08.947Z,7.37
2018-03-21T12:39:36.884Z,7.87
2018-03-21T12:42:04.830Z,9.50
2018-03-21T12:44:32.780Z,8.00
2018-03-21T12:47:00.750Z,5.23
2018-03-21T12:49:28.731Z,2.90
2018-03-21T12:51:56.655Z,2.23
2018-03-21T12:54:25.021Z,2.17
2018-03-21T12:56:53.494Z,4.67
2018-03-21T12:59:21.878Z,3.23
2018-03-21T13:01:50.268Z,5.80
2018-03-21T13:04:18.859Z,5.00
2018-03-21T13:06:47.330Z,3.73
2018-03-21T13:09:15.948Z,7.10
2018-03-21T13:11:44.290Z,16.10
2018-03-21T13:14:12.906Z,7.47
2018-03-21T13:16:41.453Z,13.50
2018-03-21T13:19:09.834Z,8.90
2018-03-21T13:21:38.219Z,5.27
2018-03-21T13:24:06.685Z,6.97
2018-03-21T13:26:34.967Z,3.73
2018-03-21T13:29:03.245Z,6.10
2018-03-21T13:31:31.397Z,8.10
2018-03-21T13:33:59.993Z,9.37
2018-03-21T13:36:28.578Z,7.40
2018-03-21T13:38:57.454Z,7.73
2018-03-21T13:41:25.858Z,11.87
2018-03-21T13:43:54.431Z,11.60
2018-03-21T13:46:23.120Z,4.17
2018-03-21T13:48:51.273Z,3.03
2018-03-21T13:51:19.666Z,4.73
2018-03-21T13:53:48.540Z,3.60
2018-03-21T13:56:16.938Z,5.80
2018-03-21T13:58:45.214Z,7.77
2018-03-21T14:01:13.572Z,7.23
2018-03-21T14:03:42.077Z,4.23
2018-03-21T14:06:10.445Z,9.03
2018-03-21T14:08:38.614Z,7.30
2018-03-21T14:11:06.906Z,1.93
2018-03-21T14:13:35.174Z,1.63
2018-03-21T14:16:03.848Z,5.10
2018-03-21T14:18:32.526Z,4.77
2018-03-21T14:21:00.916Z,2.20
2018-03-21T14:23:29.648Z,2.70
2018-03-21T14:25:58.278Z,5.70
2018-03-21T14:28:26.769Z,17.47
2018-03-21T14:30:55.598Z,2.10
2018-03-21T14:33:23.830Z,23.83
2018-03-21T14:35:52.309Z,3.20
2018-03-21T14:38:20.997Z,13.00
2018-03-21T14:40:49.368Z,4.83
2018-03-21T14:43:17.759Z,3.30
2018-03-21T14:45:46.219Z,4.30
2018-03-21T14:48:14.818Z,2.63
2018-03-21T14:50:43.298Z,3.50
2018-03-21T14:53:11.661Z,4.63
2018-03-21T14:55:40.054Z,7.00
2018-03-21T14:58:08.381Z,7.10
2018-03-21T15:00:36.808Z,3.23
2018-03-21T15:03:05.390Z,6.27
2018-03-21T15:05:33.601Z,7.07
2018-03-21T15:08:02.248Z,55.73
2018-03-21T15:10:30.630Z,33.73
2018-03-21T15:12:59.102Z,4.40
2018-03-21T15:15:27.481Z,8.03
2018-03-21T15:17:55.952Z,6.97
2018-03-21T15:20:24.446Z,4.30
2018-03-21T15:22:53.139Z,4.40
2018-03-21T15:25:22.121Z,5.20
2018-03-21T15:27:50.897Z,4.40
2018-03-21T15:30:19.194Z,5.37
2018-03-21T15:32:47.561Z,5.43
2018-03-21T15:35:15.966Z,5.80
2018-03-21T15:37:44.530Z,18.40
2018-03-21T15:40:13.263Z,29.60
2018-03-21T15:42:41.489Z,49.20
2018-03-21T15:45:09.862Z,14.83
2018-03-21T15:47:38.294Z,62.20
2018-03-21T15:50:06.730Z,18.70
2018-03-21T15:52:35.088Z,33.77
2018-03-21T15:55:03.381Z,42.07
2018-03-21T15:57:31.706Z,28.07
2018-03-21T16:00:00.143Z,47.60
2018-03-21T16:02:28.618Z,39.30
2018-03-21T16:04:56.880Z,44.37
2018-03-21T16:07:25.369Z,45.93
2018-03-21T16:09:53.789Z,47.63
2018-03-21T16:12:22.433Z,55.40
2018-03-21T16:14:50.809Z,41.57
2018-03-21T16:17:19.173Z,48.57
2018-03-21T16:19:47.677Z,44.03
2018-03-21T16:22:16.050Z,42.93
2018-03-21T16:24:44.436Z,43.03
2018-03-21T16:27:13.004Z,43.43
2018-03-21T16:29:41.393Z,46.37
2018-03-21T16:32:10.070Z,40.47
2018-03-21T16:34:38.563Z,35.20
2018-03-21T16:37:07.233Z,30.00
2018-03-21T16:39:35.522Z,22.73
2018-03-21T16:42:03.913Z,18.10
2018-03-21T16:44:32.200Z,18.77
2018-03-21T16:47:00.883Z,23.97
2018-03-21T16:49:29.214Z,20.70
2018-03-21T16:51:57.609Z,34.90
2018-03-21T16:54:26.195Z,28.83
2018-03-21T16:56:54.656Z,30.23
2018-03-21T16:59:23.357Z,26.70
2018-03-21T17:01:52.041Z,36.07
2018-03-21T17:04:20.303Z,48.50
2018-03-21T17:06:48.797Z,34.23
2018-03-21T17:09:17.494Z,22.93
2018-03-21T17:11:45.753Z,16.80
2018-03-21T17:14:14.228Z,16.37
2018-03-21T17:16:42.704Z,14.20
2018-03-21T17:19:11.099Z,24.57
2018-03-21T17:21:39.682Z,28.10
2018-03-21T17:24:08.015Z,82.70
2018-03-21T17:26:36.542Z,99.93
2018-03-21T17:29:05.326Z,89.37
2018-03-21T17:31:33.814Z,76.73
2018-03-21T17:34:02.182Z,60.63
2018-03-21T17:36:30.563Z,66.57
2018-03-21T17:38:59.152Z,52.23
2018-03-21T17:41:27.633Z,53.73
2018-03-21T17:43:56.115Z,50.33
2018-03-21T17:46:24.703Z,50.13
2018-03-21T17:48:53.382Z,58.47
2018-03-21T17:51:22.352Z,62.97
2018-03-21T17:53:50.753Z,65.00
2018-03-21T17:56:19.226Z,72.10
2018-03-21T17:58:47.818Z,57.40
2018-03-21T18:01:16.296Z,83.53
2018-03-21T18:03:44.753Z,89.60
2018-03-21T18:06:13.233Z,129.43
2018-03-21T18:08:41.841Z,104.00
2018-03-21T18:11:10.414Z,88.27
2018-03-21T18:13:38.803Z,78.83
2018-03-21T18:16:07.184Z,65.87
2018-03-21T18:18:35.800Z,62.33
2018-03-21T18:21:04.338Z,69.23
2018-03-21T18:23:33.029Z,100.53
2018-03-21T18:26:01.194Z,95.13
2018-03-21T18:28:29.573Z,77.37
2018-03-21T18:30:58.226Z,71.60
2018-03-21T18:33:26.648Z,66.00
2018-03-21T18:35:55.121Z,62.90
2018-03-21T18:38:23.600Z,85.37
2018-03-21T18:40:52.078Z,65.73
2018-03-21T18:43:20.607Z,60.30
2018-03-21T18:45:49.126Z,60.63
2018-03-21T18:48:17.722Z,62.47
2018-03-21T18:50:45.984Z,66.20
2018-03-21T18:53:14.994Z,61.97
2018-03-21T18:55:43.269Z,73.87
2018-03-21T18:58:12.059Z,61.50
2018-03-21T19:00:40.405Z,57.20
2018-03-21T19:03:08.914Z,51.23
2018-03-21T19:05:37.397Z,48.07
2018-03-21T19:08:05.865Z,49.20
2018-03-21T19:10:34.364Z,42.17
2018-03-21T19:13:03.241Z,42.33
2018-03-21T19:15:31.425Z,43.33
2018-03-21T19:18:00.002Z,36.60
2018-03-21T19:20:28.891Z,24.80
2018-03-21T19:22:57.387Z,35.50
2018-03-21T19:25:25.849Z,27.97
2018-03-21T19:27:54.434Z,38.87
2018-03-21T19:30:22.797Z,35.83
2018-03-21T19:32:51.608Z,36.47
2018-03-21T19:35:20.081Z,39.97
2018-03-21T19:37:48.713Z,42.30
2018-03-21T19:40:17.042Z,42.20
2018-03-21T19:42:45.929Z,38.07
2018-03-21T19:45:14.415Z,37.70
2018-03-21T19:47:42.993Z,50.57
2018-03-21T19:50:11.985Z,46.80
2018-03-21T19:52:40.582Z,48.10
2018-03-21T19:55:08.905Z,52.17
2018-03-21T19:57:37.425Z,43.13
2018-03-21T20:00:06.015Z,57.20
2018-03-21T20:02:34.702Z,52.93
2018-03-21T20:05:03.179Z,43.13
2018-03-21T20:07:31.563Z,53.13
2018-03-21T20:09:59.918Z,53.30
2018-03-21T20:12:28.651Z,55.97
2018-03-21T20:14:57.102Z,57.67
2018-03-21T20:17:25.994Z,46.00
2018-03-21T20:19:54.568Z,42.97
2018-03-21T20:22:23.059Z,42.07
2018-03-21T20:24:51.640Z,40.90
2018-03-21T20:27:20.063Z,30.40
2018-03-21T20:29:48.597Z,32.47
2018-03-21T20:32:16.990Z,30.70
2018-03-21T20:34:45.657Z,26.67
2018-03-21T20:37:14.147Z,24.00
2018-03-21T20:39:42.520Z,24.70
2018-03-21T20:42:11.097Z,22.00
2018-03-21T20:44:39.402Z,22.67
2018-03-21T20:47:07.985Z,22.23
2018-03-21T20:49:36.641Z,16.20
2018-03-21T20:52:04.818Z,19.90
2018-03-21T20:54:33.296Z,14.50
2018-03-21T20:57:01.586Z,16.17
2018-03-21T20:59:30.158Z,15.17
2018-03-21T21:01:58.823Z,16.57
2018-03-21T21:04:27.322Z,20.80
2018-03-21T21:06:55.702Z,19.10
2018-03-21T21:09:24.198Z,18.37
2018-03-21T21:11:52.866Z,19.73
2018-03-21T21:14:21.252Z,23.63
2018-03-21T21:16:49.824Z,22.90
2018-03-21T21:19:18.316Z,21.03
2018-03-21T21:21:46.786Z,21.23
2018-03-21T21:24:15.166Z,19.67
2018-03-21T21:26:43.474Z,21.00
2018-03-21T21:29:12.234Z,20.90
2018-03-21T21:31:40.914Z,20.77
2018-03-21T21:34:09.378Z,21.67
2018-03-21T21:36:38.485Z,28.00
2018-03-21T21:39:06.870Z,26.57
2018-03-21T21:41:35.287Z,23.60
2018-03-21T21:44:03.620Z,23.43
2018-03-21T21:46:31.569Z,19.97
2018-03-21T21:48:59.475Z,17.03
2018-03-21T21:51:27.482Z,17.40
2018-03-21T21:53:55.502Z,17.40
2018-03-21T21:56:23.430Z,22.63
2018-03-21T21:58:51.374Z,18.27
2018-03-21T22:01:19.819Z,20.37
2018-03-21T22:03:47.749Z,14.67
2018-03-21T22:06:15.711Z,14.17
2018-03-21T22:08:43.706Z,15.77
2018-03-21T22:11:11.736Z,17.37
2018-03-21T22:13:39.722Z,16.80
2018-03-21T22:16:07.648Z,16.50
2018-03-21T22:18:35.676Z,13.83
2018-03-21T22:21:03.644Z,13.63
2018-03-21T22:23:32.253Z,12.60
2018-03-21T22:26:00.631Z,12.10
2018-03-21T22:28:28.628Z,10.67
2018-03-21T22:30:56.665Z,9.20
2018-03-21T22:33:24.688Z,9.20
2018-03-21T22:35:52.630Z,7.93
2018-03-21T22:38:20.980Z,7.33
2018-03-21T22:40:48.930Z,8.40
2018-03-21T22:43:17.099Z,7.47
2018-03-21T22:45:45.469Z,6.33
2018-03-21T22:48:13.973Z,6.23
2018-03-21T22:50:42.349Z,8.03
2018-03-21T22:53:10.833Z,10.03
2018-03-21T22:55:39.519Z,8.10
2018-03-21T22:58:07.835Z,8.67
2018-03-21T23:00:36.273Z,10.47
2018-03-21T23:03:05.063Z,9.70
2018-03-21T23:05:33.332Z,11.47
2018-03-21T23:08:02.218Z,15.00
2018-03-21T23:10:30.522Z,15.63
2018-03-21T23:12:58.770Z,18.20
2018-03-21T23:15:27.261Z,13.80
2018-03-21T23:17:55.723Z,15.77
2018-03-21T23:20:24.330Z,15.20
2018-03-21T23:22:52.913Z,15.00
2018-03-21T23:25:20.825Z,16.07
2018-03-21T23:27:48.775Z,15.20
2018-03-21T23:30:16.770Z,15.13
2018-03-21T23:32:44.697Z,17.10
2018-03-21T23:35:12.626Z,16.63
2018-03-21T23:37:40.659Z,19.07
2018-03-21T23:40:09.052Z,17.13
2018-03-21T23:42:37.017Z,17.57
2018-03-21T23:45:05.018Z,14.30
2018-03-21T23:47:32.982Z,12.87
2018-03-21T23:50:00.999Z,12.73
2018-03-21T23:52:28.927Z,12.17
2018-03-21T23:54:56.913Z,11.47
2018-03-21T23:57:24.892Z,12.27
2018-03-21T23:59:52.909Z,12.30
